Time;durP1;ratioP1;P1;durP2;ratioP2;P2;SDS_P1;SDS_P2;PMS_P1;PMS_P2;Temp;Humidity;BMP_temperature;BMP_pressure;BME280_temperature;BME280_humidity;BME280_pressure;Samples;Min_cycle;Max_cycle;Signal;HPM_P1;HPM_P2
2022/07/24 00:01:58;;;;;;;27.95;18.67;;;;;;;20.98;81.56;99283.91;5101312;28;20066;-59
2022/07/24 00:04:23;;;;;;;25.90;19.10;;;;;;;20.98;82.15;99294.44;5101778;28;20534;-60
2022/07/24 00:06:49;;;;;;;26.67;19.63;;;;;;;20.99;82.17;99288.22;5101758;28;20073;-60
2022/07/24 00:09:15;;;;;;;25.33;17.95;;;;;;;20.96;82.43;99292.84;5101626;28;20024;-59
2022/07/24 00:11:41;;;;;;;27.65;18.65;;;;;;;20.94;82.73;99292.13;5101658;28;20047;-60
2022/07/24 00:14:06;;;;;;;29.73;19.05;;;;;;;20.92;82.35;99289.63;5101706;28;20059;-60
2022/07/24 00:16:32;;;;;;;28.90;18.92;;;;;;;20.92;82.21;99291.38;5101640;28;20020;-60
2022/07/24 00:18:57;;;;;;;27.30;18.52;;;;;;;20.88;82.64;99288.16;5100752;28;20091;-60
2022/07/24 00:21:23;;;;;;;30.80;18.25;;;;;;;20.85;82.82;99286.56;5101673;28;20031;-60
2022/07/24 00:23:49;;;;;;;31.42;18.50;;;;;;;20.85;82.58;99286.56;5101462;28;20069;-60
2022/07/24 00:26:14;;;;;;;26.83;19.25;;;;;;;20.85;82.53;99286.56;5099728;28;20059;-60
2022/07/24 00:28:40;;;;;;;28.15;19.10;;;;;;;20.83;82.73;99291.09;5101611;28;20052;-60
2022/07/24 00:31:06;;;;;;;31.95;18.70;;;;;;;20.77;83.00;99282.81;5105241;28;20028;-61
2022/07/24 00:33:32;;;;;;;35.92;20.20;;;;;;;20.78;82.32;99289.72;5104801;28;20050;-61
2022/07/24 00:35:58;;;;;;;27.38;19.55;;;;;;;20.76;82.52;99289.84;5105205;28;20537;-61
2022/07/24 00:38:23;;;;;;;25.23;19.67;;;;;;;20.73;83.06;99291.84;5103688;28;20020;-61
2022/07/24 00:40:49;;;;;;;26.55;18.75;;;;;;;20.73;82.84;99299.75;5105068;28;20027;-65
2022/07/24 00:43:16;;;;;;;28.27;19.88;;;;;;;20.59;83.47;99288.34;5104851;28;20020;-62
2022/07/24 00:45:43;;;;;;;25.20;18.38;;;;;;;20.60;83.36;99295.31;5109283;28;20032;-61
2022/07/24 00:48:09;;;;;;;26.52;19.30;;;;;;;20.60;83.52;99294.47;5103794;28;20220;-61
2022/07/24 00:50:36;;;;;;;29.58;18.85;;;;;;;20.61;82.86;99298.78;5103525;28;20347;-61
2022/07/24 00:53:02;;;;;;;26.95;19.42;;;;;;;20.60;82.99;99294.47;5104783;28;20091;-61
2022/07/24 00:55:28;;;;;;;30.60;20.55;;;;;;;20.52;83.48;99295.84;5104582;28;20356;-61
2022/07/24 00:57:54;;;;;;;28.63;19.05;;;;;;;20.49;83.56;99298.69;5104819;28;20043;-61
2022/07/24 01:00:21;;;;;;;31.40;19.90;;;;;;;20.45;83.66;99301.63;5104742;28;20024;-60
2022/07/24 01:02:49;;;;;;;30.10;20.17;;;;;;;20.14;83.76;99249.34;5103124;28;20039;-60
2022/07/24 01:05:16;;;;;;;25.40;17.95;;;;;;;20.33;84.15;99290.16;5099814;28;20032;-61
2022/07/24 01:07:42;;;;;;;27.65;19.05;;;;;;;20.33;84.15;99292.78;5104343;28;20122;-61
2022/07/24 01:10:08;;;;;;;23.63;16.98;;;;;;;20.36;84.44;99295.22;5104652;28;20084;-61
2022/07/24 01:12:38;;;;;;;23.63;17.63;;;;;;;20.38;84.32;99289.84;5099166;28;20032;-61
2022/07/24 01:15:05;;;;;;;25.92;18.23;;;;;;;20.15;84.45;99256.28;5090706;28;20017;-61
2022/07/24 01:17:33;;;;;;;23.10;17.88;;;;;;;20.37;84.26;99289.00;5095383;28;20116;-61
2022/07/24 01:19:59;;;;;;;22.33;18.33;;;;;;;20.35;84.11;99283.84;5103189;28;20042;-61
2022/07/24 01:22:26;;;;;;;25.52;17.80;;;;;;;20.42;83.71;99284.28;5104154;28;20057;-61
2022/07/24 01:24:52;;;;;;;22.05;17.05;;;;;;;20.39;84.01;99292.34;5104130;28;20205;-61
2022/07/24 01:27:18;;;;;;;24.65;17.58;;;;;;;20.37;83.88;99294.25;5104108;28;20086;-61
2022/07/24 01:29:44;;;;;;;19.98;16.48;;;;;;;20.30;84.07;99293.00;5095070;28;20032;-62
2022/07/24 01:32:09;;;;;;;21.67;17.00;;;;;;;20.34;83.92;99295.31;5090437;28;20024;-61
2022/07/24 01:34:35;;;;;;;21.60;16.25;;;;;;;20.27;83.98;99293.22;5100809;28;20050;-61
2022/07/24 01:37:01;;;;;;;18.77;16.60;;;;;;;20.21;84.19;99301.50;5084005;28;20332;-61
2022/07/24 01:39:26;;;;;;;22.13;14.90;;;;;;;20.21;84.40;99309.41;5102008;28;20020;-60
2022/07/24 01:41:52;;;;;;;22.23;15.80;;;;;;;20.22;84.40;99297.94;5103112;28;20031;-61
2022/07/24 01:44:18;;;;;;;19.55;14.35;;;;;;;20.18;84.68;99292.06;5102376;28;20023;-61
2022/07/24 01:46:43;;;;;;;17.25;15.20;;;;;;;20.21;84.59;99299.75;5103657;28;20020;-61
2022/07/24 01:49:09;;;;;;;21.42;15.85;;;;;;;20.22;84.22;99290.88;5103766;28;20090;-61
2022/07/24 01:51:35;;;;;;;19.20;14.68;;;;;;;20.24;84.48;99304.78;5103728;28;20028;-61
2022/07/24 01:54:02;;;;;;;18.42;14.18;;;;;;;20.25;83.90;99292.47;5102763;28;20064;-61
2022/07/24 01:56:29;;;;;;;18.80;14.43;;;;;;;20.26;84.58;99296.78;5095312;28;20025;-61
2022/07/24 01:58:54;;;;;;;16.67;14.00;;;;;;;20.30;83.69;99296.47;5089204;28;20059;-61
2022/07/24 02:01:20;;;;;;;17.60;13.93;;;;;;;20.28;84.28;99311.53;5103720;28;20070;-61
2022/07/24 02:03:46;;;;;;;18.65;14.60;;;;;;;20.24;84.44;99303.94;5103377;28;20035;-61
2022/07/24 02:06:12;;;;;;;16.23;14.00;;;;;;;20.27;84.29;99299.31;5103260;28;20375;-61
2022/07/24 02:08:38;;;;;;;20.55;14.25;;;;;;;20.31;84.11;99306.03;5103068;28;20174;-61
2022/07/24 02:11:04;;;;;;;17.63;14.23;;;;;;;20.30;84.28;99300.91;5103323;28;20295;-61
2022/07/24 02:13:30;;;;;;;17.13;13.70;;;;;;;20.38;83.67;99301.22;5103012;28;20321;-61
2022/07/24 02:15:56;;;;;;;16.55;13.43;;;;;;;20.40;83.63;99303.75;5103024;28;20039;-61
2022/07/24 02:18:22;;;;;;;17.70;13.55;;;;;;;20.41;83.62;99301.00;5103107;28;20024;-61
2022/07/24 02:20:48;;;;;;;18.17;14.50;;;;;;;20.40;84.14;99303.75;5101662;28;20382;-61
2022/07/24 02:23:17;;;;;;;17.17;13.68;;;;;;;20.33;84.29;99304.13;5102925;28;20024;-61
2022/07/24 02:25:46;;;;;;;18.13;13.68;;;;;;;20.38;84.12;99305.63;5102768;28;20103;-61
2022/07/24 02:28:13;;;;;;;16.23;14.23;;;;;;;20.38;84.27;99303.00;5102770;28;20032;-61
2022/07/24 02:30:38;;;;;;;18.27;13.98;;;;;;;20.43;83.69;99304.34;5101663;28;20036;-61
2022/07/24 02:33:04;;;;;;;19.58;14.82;;;;;;;20.42;83.71;99301.84;5102222;28;20028;-61
2022/07/24 02:35:30;;;;;;;18.83;15.25;;;;;;;20.44;84.25;99307.84;5102399;28;20355;-61
2022/07/24 02:37:55;;;;;;;20.75;14.93;;;;;;;20.46;84.00;99314.66;5102753;28;20043;-61
2022/07/24 02:40:21;;;;;;;17.52;14.18;;;;;;;20.47;84.08;99316.34;5102786;28;20020;-60
2022/07/24 02:42:47;;;;;;;15.85;14.15;;;;;;;20.53;83.87;99318.56;5101609;28;20024;-61
2022/07/24 02:45:12;;;;;;;15.98;13.82;;;;;;;20.55;83.95;99312.34;5105626;28;20022;-61
2022/07/24 02:47:54;;;;;;;17.65;14.20;;;;;;;20.62;83.79;99318.88;5102765;28;20027;-61
2022/07/24 02:50:21;;;;;;;17.48;14.25;;;;;;;20.62;83.49;99308.34;5102670;28;20023;-60
2022/07/24 02:52:47;;;;;;;22.02;14.40;;;;;;;20.65;83.40;99306.34;5100952;28;20095;-60
2022/07/24 02:55:13;;;;;;;16.67;14.80;;;;;;;20.72;83.29;99306.78;5102334;28;20036;-60
2022/07/24 02:57:40;;;;;;;21.35;16.60;;;;;;;20.77;83.02;99303.84;5102257;28;20044;-60
2022/07/24 03:00:09;;;;;;;20.45;15.63;;;;;;;20.57;82.76;99253.41;5102294;28;20038;-60
2022/07/24 03:02:35;;;;;;;17.95;14.93;;;;;;;20.83;83.29;99298.97;5102322;28;20074;-60
2022/07/24 03:05:01;;;;;;;17.58;14.05;;;;;;;20.87;83.22;99302.25;5102214;28;20031;-60
2022/07/24 03:07:29;;;;;;;20.30;14.60;;;;;;;20.89;83.04;99302.16;5102768;28;20435;-60
2022/07/24 03:09:55;;;;;;;21.75;14.82;;;;;;;20.90;83.35;99286.22;5100975;28;20028;-59
2022/07/24 03:12:21;;;;;;;21.00;14.85;;;;;;;20.97;83.28;99298.00;5101130;28;20036;-59
2022/07/24 03:14:47;;;;;;;23.60;15.52;;;;;;;21.01;82.89;99293.38;5102006;28;20038;-61
2022/07/24 03:17:12;;;;;;;18.10;14.23;;;;;;;21.06;83.13;99296.50;5102168;28;20024;-60
2022/07/24 03:19:38;;;;;;;22.40;15.48;;;;;;;21.11;82.70;99288.31;5101994;28;20233;-60
2022/07/24 03:22:04;;;;;;;21.40;14.55;;;;;;;21.12;82.87;99279.44;5102022;28;20328;-60
2022/07/24 03:24:30;;;;;;;17.50;13.80;;;;;;;21.21;82.51;99278.78;5100550;28;20039;-60
2022/07/24 03:26:55;;;;;;;17.30;14.70;;;;;;;21.28;82.27;99277.38;5101083;28;20090;-60
2022/07/24 03:29:21;;;;;;;21.60;14.10;;;;;;;21.32;82.09;99284.13;5101860;28;20093;-60
2022/07/24 03:31:47;;;;;;;17.13;14.70;;;;;;;21.39;82.33;99281.84;5101821;28;20020;-60
2022/07/24 03:34:13;;;;;;;25.63;14.52;;;;;;;21.45;82.35;99278.78;5100166;28;20024;-60
2022/07/24 03:36:39;;;;;;;18.25;13.98;;;;;;;21.52;81.42;99281.81;5100332;28;20039;-61
2022/07/24 03:39:05;;;;;;;20.25;13.98;;;;;;;21.57;81.00;99286.78;5101968;28;20217;-61
2022/07/24 03:41:31;;;;;;;18.98;12.25;;;;;;;21.61;81.06;99281.16;5101808;28;20343;-60
2022/07/24 03:43:57;;;;;;;16.00;11.95;;;;;;;21.72;80.07;99277.75;5101947;28;20030;-61
2022/07/24 03:46:23;;;;;;;13.77;12.02;;;;;;;21.81;78.92;99284.94;5106190;28;20201;-61
2022/07/24 03:48:49;;;;;;;15.98;11.73;;;;;;;21.86;77.91;99272.28;5101788;28;20059;-61
2022/07/24 03:51:15;;;;;;;18.08;11.85;;;;;;;22.07;77.21;99274.22;5100766;28;20032;-61
2022/07/24 03:53:40;;;;;;;16.83;12.10;;;;;;;22.15;76.85;99282.41;5101639;28;20028;-61
2022/07/24 03:56:08;;;;;;;14.43;11.68;;;;;;;22.22;75.14;99275.69;5101677;28;20038;-61
2022/07/24 03:58:34;;;;;;;14.93;11.88;;;;;;;22.26;73.36;99271.03;5101813;28;20462;-61
2022/07/24 04:00:59;;;;;;;14.02;12.18;;;;;;;22.39;73.42;99276.25;5101781;28;20027;-61
2022/07/24 04:03:25;;;;;;;14.02;12.07;;;;;;;22.43;71.20;99269.75;5100637;28;20040;-61
2022/07/24 04:05:50;;;;;;;12.88;10.85;;;;;;;22.57;71.09;99264.25;5105257;28;20050;-61
2022/07/24 04:08:16;;;;;;;16.15;11.73;;;;;;;22.63;71.28;99268.22;5105511;28;20099;-60
2022/07/24 04:10:42;;;;;;;16.65;11.05;;;;;;;22.66;71.87;99272.38;5104238;28;20243;-60
2022/07/24 04:13:07;;;;;;;16.25;10.27;;;;;;;22.61;71.44;99250.81;5105681;28;20077;-60
2022/07/24 04:15:33;;;;;;;13.95;10.77;;;;;;;22.71;71.42;99275.53;5105102;28;20268;-60
2022/07/24 04:17:59;;;;;;;11.40;9.75;;;;;;;22.80;71.67;99277.41;5104337;28;20028;-60
2022/07/24 04:20:24;;;;;;;11.65;9.77;;;;;;;22.88;70.58;99276.81;5105436;28;20223;-60
2022/07/24 04:22:50;;;;;;;15.60;11.15;;;;;;;22.87;70.65;99281.28;5102876;28;20065;-61
2022/07/24 04:25:16;;;;;;;14.23;11.30;;;;;;;22.91;69.81;99276.56;5105700;28;20032;-62
2022/07/24 04:27:43;;;;;;;14.48;10.85;;;;;;;22.95;69.87;99279.84;5105101;28;20032;-60
2022/07/24 04:30:10;;;;;;;15.10;12.07;;;;;;;22.98;69.09;99282.22;5104586;28;20063;-61
2022/07/24 04:32:36;;;;;;;14.02;11.80;;;;;;;23.09;69.36;99284.84;5105176;28;20034;-61
2022/07/24 04:35:03;;;;;;;15.88;10.07;;;;;;;23.17;69.00;99287.72;5105282;28;20035;-61
2022/07/24 04:37:29;;;;;;;15.50;10.90;;;;;;;23.20;69.01;99279.56;5103967;28;20024;-61
2022/07/24 04:39:55;;;;;;;14.18;10.27;;;;;;;23.26;69.43;99276.41;5105083;28;20312;-61
2022/07/24 04:42:20;;;;;;;15.90;10.73;;;;;;;23.34;68.04;99277.59;5105350;28;20023;-60
2022/07/24 04:44:46;;;;;;;15.70;10.50;;;;;;;23.43;68.21;99282.97;5104987;28;20016;-61
2022/07/24 04:47:12;;;;;;;13.18;10.77;;;;;;;23.49;67.56;99276.34;5104702;28;20024;-62
2022/07/24 04:49:37;;;;;;;12.68;10.07;;;;;;;23.48;65.87;99282.59;5104398;28;20028;-61
2022/07/24 04:52:03;;;;;;;16.33;10.25;;;;;;;23.58;66.37;99283.50;5104966;28;20197;-62
2022/07/24 04:54:29;;;;;;;12.40;9.25;;;;;;;23.64;65.20;99281.34;5104712;28;20020;-61
2022/07/24 04:56:54;;;;;;;15.32;9.18;;;;;;;23.79;65.65;99286.19;5104683;28;20325;-61
2022/07/24 04:59:20;;;;;;;15.27;9.15;;;;;;;23.87;65.65;99285.59;5104814;28;20052;-61
2022/07/24 05:01:45;;;;;;;12.13;9.45;;;;;;;23.89;63.82;99283.66;5104779;28;20236;-61
2022/07/24 05:04:11;;;;;;;10.85;7.82;;;;;;;23.95;63.83;99280.47;5104466;28;20039;-61
2022/07/24 05:06:37;;;;;;;11.68;8.50;;;;;;;24.06;63.31;99281.41;5104400;28;20028;-61
2022/07/24 05:09:03;;;;;;;10.73;8.68;;;;;;;24.09;63.99;99281.97;5086277;28;20023;-61
2022/07/24 05:11:28;;;;;;;14.73;10.30;;;;;;;24.10;64.96;99286.31;5104320;28;20024;-61
2022/07/24 05:13:54;;;;;;;9.90;8.65;;;;;;;24.09;64.46;99270.56;5100628;28;20024;-61
2022/07/24 05:16:19;;;;;;;12.50;7.93;;;;;;;24.19;63.11;99283.84;5098988;28;20042;-61
2022/07/24 05:18:45;;;;;;;16.48;8.05;;;;;;;24.28;63.11;99270.69;5103699;28;20016;-62
2022/07/24 05:21:11;;;;;;;16.75;7.93;;;;;;;24.40;62.63;99274.06;5104020;28;20032;-61
2022/07/24 05:23:36;;;;;;;11.80;7.40;;;;;;;24.42;62.71;99268.66;5104010;28;20020;-62
2022/07/24 05:26:02;;;;;;;11.90;7.35;;;;;;;24.48;60.44;99262.81;5103557;28;20028;-62
2022/07/24 05:28:28;;;;;;;10.95;6.90;;;;;;;24.57;59.91;99264.69;5103807;28;20337;-61
2022/07/24 05:30:53;;;;;;;8.05;6.10;;;;;;;24.59;61.52;99265.38;5098320;28;20043;-61
2022/07/24 05:33:19;;;;;;;15.98;7.63;;;;;;;24.71;61.20;99260.00;5103688;28;20312;-61
2022/07/24 05:35:44;;;;;;;11.93;7.70;;;;;;;24.73;61.03;99261.56;5077141;28;20040;-61
2022/07/24 05:38:10;;;;;;;11.00;7.10;;;;;;;24.84;61.39;99255.31;5102443;28;20016;-61
2022/07/24 05:40:36;;;;;;;10.43;7.00;;;;;;;24.85;60.00;99250.84;5103083;28;20035;-60
2022/07/24 05:43:01;;;;;;;11.57;7.20;;;;;;;24.98;60.41;99265.53;5089401;28;20028;-61
2022/07/24 05:45:27;;;;;;;9.88;7.38;;;;;;;25.07;60.80;99263.88;5098286;28;20038;-61
2022/07/24 05:47:53;;;;;;;10.65;8.30;;;;;;;25.12;61.58;99260.81;5089370;28;20032;-61
2022/07/24 05:50:19;;;;;;;7.90;7.10;;;;;;;25.14;61.83;99253.59;5090544;28;20028;-63
2022/07/24 05:52:45;;;;;;;11.10;7.47;;;;;;;25.09;60.37;99255.78;5102104;28;20027;-62
2022/07/24 05:55:11;;;;;;;9.10;7.22;;;;;;;25.07;59.93;99242.69;5103629;28;20032;-62
2022/07/24 05:57:37;;;;;;;8.10;7.25;;;;;;;25.06;58.23;99256.91;5103600;28;20082;-64
2022/07/24 06:00:04;;;;;;;7.97;7.18;;;;;;;25.22;59.34;99255.53;5103737;28;20043;-61
2022/07/24 06:02:29;;;;;;;9.40;7.22;;;;;;;25.25;58.54;99242.00;5102133;28;20056;-60
2022/07/24 06:04:55;;;;;;;10.63;7.88;;;;;;;25.33;58.08;99248.31;5102101;28;20355;-62
2022/07/24 06:07:21;;;;;;;9.23;6.90;;;;;;;25.45;58.48;99246.38;5085499;28;20031;-62
2022/07/24 06:09:46;;;;;;;8.90;7.35;;;;;;;25.52;57.04;99243.16;5097332;28;20031;-62
2022/07/24 06:12:12;;;;;;;15.30;7.68;;;;;;;25.61;59.27;99243.16;5094943;28;20024;-62
2022/07/24 06:14:37;;;;;;;9.32;7.22;;;;;;;25.67;57.99;99242.59;5092701;28;20267;-62
2022/07/24 06:17:03;;;;;;;8.70;6.70;;;;;;;25.81;57.64;99246.63;5103107;28;20024;-62
2022/07/24 06:19:29;;;;;;;8.13;5.97;;;;;;;25.85;55.38;99249.81;5094403;28;20040;-62
2022/07/24 06:21:54;;;;;;;9.18;5.70;;;;;;;25.84;55.75;99246.34;5102247;28;20024;-61
2022/07/24 06:24:20;;;;;;;8.63;5.88;;;;;;;26.00;57.22;99245.78;5102991;28;20224;-61
2022/07/24 06:26:45;;;;;;;6.60;5.47;;;;;;;26.08;57.91;99244.22;5102340;28;20094;-62
2022/07/24 06:29:11;;;;;;;7.85;5.63;;;;;;;26.05;57.00;99233.91;5099532;28;20024;-63
2022/07/24 06:31:37;;;;;;;8.07;5.78;;;;;;;26.14;55.45;99235.69;5090038;28;20028;-62
2022/07/24 06:34:02;;;;;;;7.57;5.40;;;;;;;25.98;54.18;99237.09;5093889;28;20260;-62
2022/07/24 06:36:28;;;;;;;6.95;5.20;;;;;;;26.16;55.54;99237.22;5092855;28;20032;-62
2022/07/24 06:38:53;;;;;;;7.95;5.80;;;;;;;26.12;54.02;99229.69;5099518;28;20031;-63
2022/07/24 06:41:19;;;;;;;6.65;5.53;;;;;;;26.25;54.88;99226.72;5100909;28;20305;-63
2022/07/24 06:43:45;;;;;;;6.55;4.85;;;;;;;26.32;54.67;99228.66;5099983;28;20020;-63
2022/07/24 06:46:11;;;;;;;6.53;5.20;;;;;;;26.42;55.63;99230.41;5105346;28;20024;-63
2022/07/24 06:48:38;;;;;;;6.40;4.63;;;;;;;26.33;51.83;99225.00;5101017;28;20092;-63
2022/07/24 06:51:03;;;;;;;5.10;4.70;;;;;;;26.50;53.57;99217.25;5102453;28;20047;-63
2022/07/24 06:53:29;;;;;;;4.70;3.50;;;;;;;26.55;49.99;99217.66;5102563;28;20344;-63
2022/07/24 06:55:55;;;;;;;4.05;3.65;;;;;;;26.68;51.47;99214.66;5102327;28;20026;-63
2022/07/24 06:58:21;;;;;;;4.00;3.60;;;;;;;26.85;52.33;99213.88;5102099;28;20040;-62
2022/07/24 07:00:48;;;;;;;5.57;3.53;;;;;;;26.88;52.85;99207.44;5102287;28;20043;-62
2022/07/24 07:03:14;;;;;;;7.47;3.47;;;;;;;27.01;51.54;99215.88;5101832;28;20071;-61
2022/07/24 07:05:40;;;;;;;3.80;3.40;;;;;;;27.07;51.07;99216.25;5102072;28;20024;-61
2022/07/24 07:08:05;;;;;;;3.70;3.42;;;;;;;27.11;50.37;99218.47;5102294;28;20090;-63
2022/07/24 07:10:31;;;;;;;6.47;4.22;;;;;;;27.13;50.48;99210.31;5102169;28;20035;-62
2022/07/24 07:12:57;;;;;;;6.20;4.07;;;;;;;27.19;50.76;99215.03;5102490;28;20028;-62
2022/07/24 07:15:23;;;;;;;6.07;3.50;;;;;;;27.18;50.56;99214.19;5102501;28;20024;-61
2022/07/24 07:17:49;;;;;;;3.30;3.00;;;;;;;27.20;50.39;99211.38;5092212;28;20191;-61
2022/07/24 07:20:15;;;;;;;4.00;3.70;;;;;;;27.27;49.51;99217.78;5094993;28;20032;-62
2022/07/24 07:22:41;;;;;;;3.80;3.45;;;;;;;27.30;47.80;99217.47;5101892;28;20316;-61
2022/07/24 07:25:08;;;;;;;3.35;3.15;;;;;;;27.24;47.90;99203.97;5102274;28;20101;-61
2022/07/24 07:27:35;;;;;;;3.38;3.08;;;;;;;27.34;49.35;99204.72;5093455;28;20332;-61
2022/07/24 07:30:00;;;;;;;4.63;3.50;;;;;;;27.47;49.58;99207.00;5092709;28;20363;-61
2022/07/24 07:32:26;;;;;;;4.00;3.60;;;;;;;27.40;47.28;99204.13;5102376;28;20095;-61
2022/07/24 07:34:52;;;;;;;3.30;2.95;;;;;;;27.33;44.32;99201.19;5102097;28;20123;-61
2022/07/24 07:37:17;;;;;;;4.13;3.70;;;;;;;27.50;47.30;99199.53;5102094;28;20028;-62
2022/07/24 07:39:43;;;;;;;3.60;3.28;;;;;;;27.57;46.39;99204.25;5104210;28;20020;-62
2022/07/24 07:42:08;;;;;;;4.75;3.28;;;;;;;27.54;46.70;99189.44;5106005;28;20024;-62
2022/07/24 07:44:34;;;;;;;3.30;3.00;;;;;;;27.57;46.73;99191.78;5106904;28;20213;-62
2022/07/24 07:46:59;;;;;;;3.70;3.40;;;;;;;27.64;46.82;99184.84;5098820;28;20077;-63
2022/07/24 07:49:25;;;;;;;3.75;3.33;;;;;;;27.59;47.70;99173.81;5100175;28;20205;-63
2022/07/24 07:51:52;;;;;;;3.90;3.25;;;;;;;27.68;47.28;99188.88;5096816;28;20024;-62
2022/07/24 07:54:18;;;;;;;4.10;3.80;;;;;;;27.58;45.65;99177.50;5105894;28;20044;-62
2022/07/24 07:56:44;;;;;;;5.03;3.33;;;;;;;27.72;46.83;99182.25;5106009;28;20036;-63
2022/07/24 07:59:09;;;;;;;3.90;3.35;;;;;;;27.81;47.05;99182.31;5104634;28;20213;-62
2022/07/24 08:01:35;;;;;;;4.22;3.30;;;;;;;27.87;46.16;99179.00;5105809;28;20212;-63
2022/07/24 08:04:01;;;;;;;3.22;2.92;;;;;;;27.88;46.23;99178.03;5104933;28;20123;-64
2022/07/24 08:06:27;;;;;;;4.50;3.65;;;;;;;27.94;46.79;99181.91;5105443;28;20024;-63
2022/07/24 08:08:53;;;;;;;4.00;3.20;;;;;;;27.97;46.25;99178.91;5104643;28;20508;-61
2022/07/24 08:11:18;;;;;;;4.60;3.85;;;;;;;27.95;46.62;99173.75;5104332;28;20028;-63
2022/07/24 08:13:44;;;;;;;5.15;4.55;;;;;;;27.96;46.05;99175.44;5103743;28;20204;-61
2022/07/24 08:16:09;;;;;;;5.70;3.90;;;;;;;27.92;43.26;99171.41;5104316;28;20040;-61
2022/07/24 08:18:35;;;;;;;3.85;3.45;;;;;;;27.82;42.14;99170.66;5082163;28;20356;-62
2022/07/24 08:21:01;;;;;;;5.78;3.90;;;;;;;27.98;44.00;99162.81;5102270;28;20059;-63
2022/07/24 08:23:26;;;;;;;4.40;4.00;;;;;;;28.05;44.52;99166.50;5104105;28;20024;-62
2022/07/24 08:25:52;;;;;;;5.53;4.13;;;;;;;28.17;45.09;99163.56;5094102;28;20043;-62
2022/07/24 08:28:18;;;;;;;3.70;3.40;;;;;;;28.03;43.48;99165.84;5085036;28;20032;-62
2022/07/24 08:30:43;;;;;;;4.15;3.35;;;;;;;28.12;44.14;99168.53;5102681;28;20094;-61
2022/07/24 08:33:09;;;;;;;4.18;3.88;;;;;;;28.20;44.62;99161.41;5105271;28;20032;-62
2022/07/24 08:35:35;;;;;;;7.32;3.47;;;;;;;28.26;43.56;99153.78;5103726;28;20103;-62
2022/07/24 08:38:02;;;;;;;4.05;3.67;;;;;;;28.40;43.92;99162.00;5104218;28;20053;-62
2022/07/24 08:40:39;;;;;;;5.55;3.95;;;;;;;28.26;44.44;99138.63;5105262;28;20036;-64
2022/07/24 08:43:06;;;;;;;6.78;3.60;;;;;;;28.48;44.90;99145.22;5090445;28;20012;-63
2022/07/24 08:45:35;;;;;;;6.20;4.35;;;;;;;28.49;46.09;99140.69;5097948;28;20020;-62
2022/07/24 08:48:03;;;;;;;6.10;3.58;;;;;;;28.54;44.15;99151.72;5093912;28;20043;-61
2022/07/24 08:50:30;;;;;;;4.13;3.72;;;;;;;28.55;43.81;99142.72;5094147;28;20027;-62
2022/07/24 08:53:00;;;;;;;5.47;3.80;;;;;;;28.32;43.49;99118.50;5096255;28;20027;-62
2022/07/24 08:55:28;;;;;;;5.53;4.50;;;;;;;28.50;43.02;99147.72;5094432;28;20017;-62
2022/07/24 08:57:56;;;;;;;4.80;3.58;;;;;;;28.62;43.01;99143.78;5095918;28;20100;-61
2022/07/24 09:00:23;;;;;;;3.95;3.65;;;;;;;28.64;43.19;99144.44;5094884;28;20308;-61
2022/07/24 09:02:49;;;;;;;4.07;3.78;;;;;;;28.72;43.73;99140.97;5097832;28;20085;-62
2022/07/24 09:05:14;;;;;;;6.03;5.38;;;;;;;28.77;43.05;99140.47;5095695;28;20059;-61
2022/07/24 09:07:40;;;;;;;4.32;3.40;;;;;;;28.87;42.90;99143.81;5096377;28;20031;-61
2022/07/24 09:10:11;;;;;;;5.07;3.80;;;;;;;28.75;42.26;99106.00;5100851;28;20027;-61
2022/07/24 09:12:40;;;;;;;3.88;3.33;;;;;;;28.88;42.14;99108.16;5100050;28;20119;-61
2022/07/24 09:15:23;;;;;;;3.90;3.60;;;;;;;28.86;41.23;99100.34;5095949;28;20035;-62
2022/07/24 09:17:57;;;;;;;4.60;3.50;;;;;;;29.14;41.19;99126.66;5095853;28;20029;-61
2022/07/24 09:20:26;;;;;;;4.35;3.65;;;;;;;29.20;41.00;99130.50;5091675;28;20085;-61
2022/07/24 09:22:52;;;;;;;4.07;3.78;;;;;;;29.22;42.46;99124.00;5098185;28;20376;-62
2022/07/24 09:25:26;;;;;;;4.15;3.47;;;;;;;29.21;41.17;99121.50;5101949;28;20065;-62
2022/07/24 09:27:58;;;;;;;4.90;3.88;;;;;;;29.30;41.55;99125.03;5101369;28;20068;-62
2022/07/24 09:30:36;;;;;;;4.43;3.28;;;;;;;29.34;41.79;99129.84;5103703;28;20328;-61
2022/07/24 09:33:24;;;;;;;3.85;3.55;;;;;;;29.26;41.82;99137.88;5103073;28;20031;-62
2022/07/24 09:35:52;;;;;;;4.57;4.15;;;;;;;29.09;41.60;99129.84;5100705;28;20071;-61
2022/07/24 09:38:20;;;;;;;4.40;4.00;;;;;;;29.10;41.30;99120.00;5098972;28;20043;-62
2022/07/24 09:40:52;;;;;;;9.55;4.32;;;;;;;29.17;42.54;99120.16;5103133;28;20320;-61
2022/07/24 09:43:30;;;;;;;5.82;4.50;;;;;;;28.91;41.63;99092.66;5102496;28;20020;-61
2022/07/24 09:45:55;;;;;;;7.00;3.63;;;;;;;29.22;42.37;99123.19;5103320;28;20061;-61
2022/07/24 09:48:27;;;;;;;4.75;3.60;;;;;;;29.19;41.57;99110.19;5099740;28;20047;-62
2022/07/24 09:50:54;;;;;;;6.03;4.30;;;;;;;29.01;42.72;99084.50;5103365;28;20031;-61
2022/07/24 09:53:23;;;;;;;4.88;4.25;;;;;;;29.21;42.24;99119.66;5099541;28;20340;-61
2022/07/24 09:56:06;;;;;;;4.57;4.15;;;;;;;29.26;42.29;99124.53;5103214;28;20051;-62
2022/07/24 09:58:35;;;;;;;6.13;4.43;;;;;;;29.12;42.86;99090.50;5102180;28;20028;-61
2022/07/24 10:01:03;;;;;;;5.88;4.55;;;;;;;29.35;43.41;99118.19;5102338;28;20091;-61
2022/07/24 10:03:34;;;;;;;4.57;4.18;;;;;;;29.17;41.63;99115.66;5102919;28;20027;-61
2022/07/24 10:06:02;;;;;;;;;;;;;;;29.27;40.64;99126.19;5100391;28;20028;-60
2022/07/24 10:08:28;;;;;;;4.82;3.83;;;;;;;29.36;42.92;99124.34;5101695;28;19916;-60
2022/07/24 10:10:54;;;;;;;4.07;3.78;;;;;;;29.13;42.72;99122.34;5098899;28;20031;-62
2022/07/24 10:13:20;;;;;;;4.53;3.53;;;;;;;29.11;43.07;99121.66;5102957;28;20054;-61
2022/07/24 10:16:05;;;;;;;5.05;3.97;;;;;;;28.94;42.11;99104.84;5097237;28;20035;-61
2022/07/24 10:18:58;;;;;;;6.40;5.80;;;;;;;29.16;41.66;99115.81;5095486;28;20028;-61
2022/07/24 10:21:32;;;;;;;6.05;3.65;;;;;;;28.89;43.03;99068.00;5089283;28;20095;-61
2022/07/24 10:24:04;;;;;;;7.93;4.40;;;;;;;28.93;41.25;99111.16;5098566;28;20042;-61
2022/07/24 10:26:45;;;;;;;4.22;3.88;;;;;;;28.83;42.05;99105.16;5099295;28;20020;-61
2022/07/24 10:29:19;;;;;;;12.52;7.85;;;;;;;28.85;42.58;99108.50;5097076;28;20028;-62
2022/07/24 10:31:50;;;;;;;9.63;4.50;;;;;;;28.85;42.41;99071.19;5095469;28;20059;-61
2022/07/24 10:34:27;;;;;;;3.92;3.63;;;;;;;29.14;44.81;99093.84;5102447;28;20031;-63
2022/07/24 10:37:30;;;;;;;6.43;3.58;;;;;;;29.10;41.68;99099.50;5102399;28;20040;-61
2022/07/24 10:40:04;;;;;;;7.00;4.07;;;;;;;28.75;42.17;99064.16;5099175;28;20044;-61
2022/07/24 10:42:30;;;;;;;5.00;4.28;;;;;;;28.91;43.16;99067.84;5101693;28;20024;-61
2022/07/24 10:45:22;;;;;;;4.20;3.90;;;;;;;28.99;42.23;99088.31;5102322;28;20016;-61
2022/07/24 10:47:48;;;;;;;8.52;3.90;;;;;;;29.17;44.48;99086.31;5086533;28;20040;-61
2022/07/24 10:50:17;;;;;;;3.85;3.50;;;;;;;29.31;42.35;99092.03;5096357;28;20028;-60
2022/07/24 10:52:42;;;;;;;4.05;3.65;;;;;;;29.40;42.07;99088.31;5099661;28;20027;-60
2022/07/24 10:55:34;;;;;;;4.57;3.70;;;;;;;29.42;42.65;99083.66;5096357;28;20132;-61
2022/07/24 10:58:11;;;;;;;;;;;;;;;29.44;41.35;99087.84;5097127;28;20040;-60
2022/07/24 11:00:49;;;;;;;3.78;3.45;;;;;;;29.38;41.35;99075.16;5098923;28;19919;-61
2022/07/24 11:03:19;;;;;;;3.72;3.42;;;;;;;29.33;42.03;99082.00;5080026;28;20032;-61
2022/07/24 11:06:11;;;;;;;4.13;3.75;;;;;;;28.85;42.17;99042.69;5100932;28;20213;-61
2022/07/24 11:08:39;;;;;;;4.18;3.78;;;;;;;28.87;42.11;99077.16;5101150;28;20332;-62
2022/07/24 11:11:13;;;;;;;3.88;3.50;;;;;;;28.67;42.91;99040.16;5101876;28;20039;-62
2022/07/24 11:13:41;;;;;;;4.28;3.85;;;;;;;28.89;42.95;99069.84;5101691;28;20074;-61
2022/07/24 11:16:15;;;;;;;3.85;3.55;;;;;;;28.84;43.71;99067.66;5100526;28;20024;-62
2022/07/24 11:18:41;;;;;;;3.90;3.58;;;;;;;28.80;43.90;99063.66;5101522;28;20052;-61
2022/07/24 11:21:08;;;;;;;4.45;3.45;;;;;;;28.85;43.46;99057.84;5102257;28;20077;-61
2022/07/24 11:23:34;;;;;;;5.22;4.10;;;;;;;28.85;42.16;99056.00;5101479;28;20035;-61
2022/07/24 11:26:40;;;;;;;5.03;3.97;;;;;;;29.05;43.27;99059.16;5101626;28;20099;-60
2022/07/24 11:29:24;;;;;;;4.47;4.03;;;;;;;28.66;41.62;99019.03;5084902;28;20095;-60